createdAt,value
2024-01-24T00:01:40.068Z,12.68
2024-01-24T00:04:07.880Z,12.58
2024-01-24T00:06:39.043Z,12.71
2024-01-24T00:09:06.069Z,12.65
2024-01-24T00:11:33.013Z,12.68
2024-01-24T00:13:59.974Z,12.64
2024-01-24T00:16:28.980Z,12.75
2024-01-24T00:18:56.607Z,12.73
2024-01-24T00:21:23.655Z,12.74
2024-01-24T00:23:50.618Z,12.77
2024-01-24T00:26:17.569Z,12.74
2024-01-24T00:28:45.016Z,12.73
2024-01-24T00:31:11.960Z,12.74
2024-01-24T00:33:39.901Z,12.72
2024-01-24T00:36:07.201Z,12.71
2024-01-24T00:38:34.269Z,12.61
2024-01-24T00:41:01.317Z,12.63
2024-01-24T00:43:28.404Z,12.62
2024-01-24T00:45:55.890Z,12.65
2024-01-24T00:48:23.406Z,12.63
2024-01-24T00:50:50.460Z,12.61
2024-01-24T00:53:21.727Z,12.57
2024-01-24T00:55:49.016Z,12.55
2024-01-24T00:58:16.049Z,12.52
2024-01-24T01:00:43.169Z,12.49
2024-01-24T01:03:10.363Z,12.48
2024-01-24T01:05:39.128Z,12.50
2024-01-24T01:08:06.975Z,12.48
2024-01-24T01:10:34.846Z,12.48
2024-01-24T01:13:02.166Z,12.52
2024-01-24T01:15:29.250Z,12.45
2024-01-24T01:17:56.351Z,12.48
2024-01-24T01:20:23.417Z,12.42
2024-01-24T01:22:50.409Z,12.46
2024-01-24T01:25:17.455Z,12.44
2024-01-24T01:27:44.525Z,12.46
2024-01-24T01:30:11.981Z,12.43
2024-01-24T01:32:40.157Z,12.46
2024-01-24T01:35:08.613Z,12.42
2024-01-24T01:37:35.617Z,12.43
2024-01-24T01:40:02.695Z,12.40
2024-01-24T01:42:29.987Z,12.45
2024-01-24T01:44:56.965Z,12.46
2024-01-24T01:47:24.437Z,12.46
2024-01-24T01:49:52.744Z,12.43
2024-01-24T01:52:22.589Z,12.40
2024-01-24T01:54:51.194Z,12.42
2024-01-24T01:57:18.387Z,12.40
2024-01-24T01:59:46.011Z,12.44
2024-01-24T02:02:13.132Z,12.43
2024-01-24T02:04:40.268Z,12.43
2024-01-24T02:07:07.325Z,12.45
2024-01-24T02:09:35.545Z,12.45
2024-01-24T02:12:02.610Z,12.44
2024-01-24T02:14:29.942Z,12.46
2024-01-24T02:16:57.046Z,12.46
2024-01-24T02:19:24.350Z,12.47
2024-01-24T02:21:51.429Z,12.49
2024-01-24T02:24:18.671Z,12.50
2024-01-24T02:26:45.730Z,12.51
2024-01-24T02:29:15.600Z,12.49
2024-01-24T02:31:42.626Z,12.50
2024-01-24T02:34:09.754Z,12.48
2024-01-24T02:36:36.782Z,12.51
2024-01-24T02:39:04.395Z,12.50
2024-01-24T02:41:32.995Z,12.54
2024-01-24T02:43:59.999Z,12.55
2024-01-24T02:46:26.935Z,12.50
2024-01-24T02:48:53.913Z,12.53
2024-01-24T02:51:27.952Z,12.51
2024-01-24T02:53:54.994Z,12.52
2024-01-24T02:56:22.035Z,12.53
2024-01-24T02:58:49.223Z,12.51
2024-01-24T03:01:17.399Z,12.51
2024-01-24T03:03:45.302Z,12.48
2024-01-24T03:06:12.704Z,12.50
2024-01-24T03:09:00.240Z,12.54
2024-01-24T03:11:27.493Z,12.55
2024-01-24T03:13:54.483Z,12.53
2024-01-24T03:16:21.855Z,12.51
2024-01-24T03:18:50.011Z,12.52
2024-01-24T03:21:19.159Z,12.53
2024-01-24T03:23:46.390Z,12.52
2024-01-24T03:26:17.499Z,12.54
2024-01-24T03:28:44.504Z,12.52
2024-01-24T03:31:11.666Z,12.51
2024-01-24T03:33:39.016Z,12.49
2024-01-24T03:36:06.365Z,12.50
2024-01-24T03:38:34.307Z,12.50
2024-01-24T03:41:01.848Z,12.50
2024-01-24T03:43:28.948Z,12.51
2024-01-24T03:45:56.052Z,12.49
2024-01-24T03:48:23.274Z,12.48
2024-01-24T03:50:50.386Z,12.52
2024-01-24T03:53:17.551Z,12.49
2024-01-24T03:55:44.539Z,12.50
2024-01-24T03:58:11.542Z,12.48
2024-01-24T04:00:38.594Z,12.47
2024-01-24T04:03:05.883Z,12.44
2024-01-24T04:05:33.471Z,12.40
2024-01-24T04:08:00.526Z,12.42
2024-01-24T04:10:27.527Z,12.38
2024-01-24T04:12:54.594Z,12.34
2024-01-24T04:15:21.698Z,12.32
2024-01-24T04:17:48.803Z,12.32
2024-01-24T04:20:15.849Z,12.30
2024-01-24T04:22:43.858Z,12.28
2024-01-24T04:25:10.845Z,12.24
2024-01-24T04:27:38.308Z,12.23
2024-01-24T04:30:07.157Z,12.23
2024-01-24T04:32:34.389Z,12.20
2024-01-24T04:35:01.476Z,12.22
2024-01-24T04:37:28.655Z,12.21
2024-01-24T04:39:55.787Z,12.22
2024-01-24T04:42:22.881Z,12.25
2024-01-24T04:44:50.300Z,12.25
2024-01-24T04:47:17.413Z,12.26
2024-01-24T04:49:45.986Z,12.29
2024-01-24T04:52:16.850Z,12.27
2024-01-24T04:54:44.181Z,12.18
2024-01-24T04:57:11.563Z,12.20
2024-01-24T04:59:46.200Z,12.18
2024-01-24T05:02:21.183Z,12.17
2024-01-24T05:04:48.733Z,12.16
2024-01-24T05:07:16.033Z,12.10
2024-01-24T05:09:43.047Z,12.16
2024-01-24T05:12:11.016Z,12.11
2024-01-24T05:14:38.120Z,12.09
2024-01-24T05:17:05.418Z,12.10
2024-01-24T05:19:32.975Z,12.11
2024-01-24T05:21:59.984Z,12.00
2024-01-24T05:24:26.971Z,12.05
2024-01-24T05:26:53.979Z,12.02
2024-01-24T05:29:20.957Z,12.01
2024-01-24T05:31:48.709Z,12.02
2024-01-24T05:34:15.797Z,12.00
2024-01-24T05:36:43.103Z,12.00
2024-01-24T05:39:10.503Z,12.01
2024-01-24T05:41:37.661Z,12.01
2024-01-24T05:44:04.794Z,11.99
2024-01-24T05:46:32.158Z,11.96
2024-01-24T05:49:02.123Z,11.91
2024-01-24T05:51:29.928Z,11.95
2024-01-24T05:53:57.005Z,11.92
2024-01-24T05:56:24.011Z,11.89
2024-01-24T05:58:51.094Z,11.86
2024-01-24T06:01:18.255Z,11.84
2024-01-24T06:03:45.373Z,11.82
2024-01-24T06:06:12.621Z,11.84
2024-01-24T06:08:40.107Z,11.86
2024-01-24T06:11:07.138Z,11.83
2024-01-24T06:13:34.258Z,11.86
2024-01-24T06:16:01.352Z,11.81
2024-01-24T06:18:28.401Z,11.77
2024-01-24T06:20:55.442Z,11.74
2024-01-24T06:23:22.424Z,11.80
2024-01-24T06:25:49.499Z,11.77
2024-01-24T06:28:16.969Z,11.76
2024-01-24T06:30:43.986Z,11.72
2024-01-24T06:33:11.055Z,11.70
2024-01-24T06:35:39.135Z,11.67
2024-01-24T06:38:06.149Z,11.59
2024-01-24T06:40:33.178Z,11.55
2024-01-24T06:43:00.539Z,11.61
2024-01-24T06:45:27.678Z,11.76
2024-01-24T06:47:54.746Z,12.45
2024-01-24T06:50:21.731Z,12.94
2024-01-24T06:52:48.713Z,12.99
2024-01-24T06:55:18.556Z,13.24
2024-01-24T06:57:45.821Z,13.29
2024-01-24T07:00:13.758Z,13.43
2024-01-24T07:02:40.787Z,13.45
2024-01-24T07:05:08.347Z,13.44
2024-01-24T07:07:35.495Z,13.30
2024-01-24T07:10:02.689Z,13.28
2024-01-24T07:12:29.772Z,13.38
2024-01-24T07:14:57.793Z,13.50
2024-01-24T07:17:24.952Z,13.49
2024-01-24T07:19:52.561Z,13.40
2024-01-24T07:22:19.786Z,13.29
2024-01-24T07:24:46.968Z,13.22
2024-01-24T07:27:14.029Z,13.22
2024-01-24T07:29:41.088Z,13.37
2024-01-24T07:32:08.061Z,13.19
2024-01-24T07:34:37.238Z,13.16
2024-01-24T07:37:04.890Z,13.17
2024-01-24T07:39:32.331Z,13.19
2024-01-24T07:41:59.446Z,13.43
2024-01-24T07:44:27.255Z,13.60
2024-01-24T07:46:54.550Z,13.57
2024-01-24T07:49:22.195Z,13.66
2024-01-24T07:51:50.520Z,13.59
2024-01-24T07:54:22.028Z,13.63
2024-01-24T07:56:49.219Z,13.31
2024-01-24T07:59:17.845Z,13.61
2024-01-24T08:01:48.166Z,13.50
2024-01-24T08:04:16.903Z,13.72
2024-01-24T08:06:47.329Z,13.71
2024-01-24T08:09:15.632Z,13.79
2024-01-24T08:11:42.968Z,13.72
2024-01-24T08:14:10.134Z,13.71
2024-01-24T08:16:37.377Z,13.70
2024-01-24T08:19:04.770Z,13.87
2024-01-24T08:21:32.207Z,13.97
2024-01-24T08:23:59.404Z,13.84
2024-01-24T08:26:26.393Z,13.85
2024-01-24T08:28:53.895Z,13.82
2024-01-24T08:31:21.151Z,13.67
2024-01-24T08:33:51.409Z,13.49
2024-01-24T08:36:20.400Z,13.46
2024-01-24T08:38:47.650Z,13.71
2024-01-24T08:41:14.703Z,13.75
2024-01-24T08:43:41.814Z,13.65
2024-01-24T08:46:08.883Z,13.74
2024-01-24T08:48:35.954Z,13.78
2024-01-24T08:51:03.091Z,13.87
2024-01-24T08:53:30.040Z,14.01
2024-01-24T08:55:57.322Z,14.04
2024-01-24T08:58:24.296Z,14.02
2024-01-24T09:00:53.004Z,13.82
2024-01-24T09:03:20.888Z,13.74
2024-01-24T09:05:48.312Z,13.78
2024-01-24T09:08:18.558Z,13.78
2024-01-24T09:10:45.835Z,13.84
2024-01-24T09:13:14.084Z,13.71
2024-01-24T09:15:41.406Z,13.82
2024-01-24T09:18:09.364Z,13.81
2024-01-24T09:20:36.661Z,13.67
2024-01-24T09:23:03.765Z,13.80
2024-01-24T09:25:31.914Z,13.75
2024-01-24T09:27:59.139Z,13.49
2024-01-24T09:30:26.579Z,13.46
2024-01-24T09:32:53.755Z,13.40
2024-01-24T09:35:21.017Z,13.42
2024-01-24T09:37:48.190Z,13.51
2024-01-24T09:40:18.388Z,13.34
2024-01-24T09:42:46.099Z,13.27
2024-01-24T09:45:19.043Z,13.28
2024-01-24T09:47:49.815Z,13.36
2024-01-24T09:50:17.461Z,13.30
2024-01-24T09:52:47.271Z,13.48
2024-01-24T09:55:18.741Z,13.60
2024-01-24T09:57:49.950Z,13.57
2024-01-24T10:00:17.747Z,13.36
2024-01-24T10:02:47.880Z,13.44
2024-01-24T10:05:19.142Z,13.36
2024-01-24T10:07:46.939Z,13.38
2024-01-24T10:10:14.939Z,13.68
2024-01-24T10:12:45.417Z,13.46
2024-01-24T10:15:13.140Z,13.18
2024-01-24T10:17:44.507Z,13.37
2024-01-24T10:20:13.405Z,13.09
2024-01-24T10:22:43.355Z,13.29
2024-01-24T10:25:12.225Z,13.34
2024-01-24T10:27:40.970Z,13.25
2024-01-24T10:30:13.389Z,13.23
2024-01-24T10:32:45.653Z,13.18
2024-01-24T10:35:13.708Z,13.12
2024-01-24T10:37:43.183Z,13.20
2024-01-24T10:40:16.455Z,13.25
2024-01-24T10:42:44.720Z,13.30
2024-01-24T10:45:12.216Z,13.23
2024-01-24T10:47:41.673Z,13.26
2024-01-24T10:50:11.127Z,13.36
2024-01-24T10:52:40.680Z,13.02
2024-01-24T10:55:12.527Z,13.24
2024-01-24T10:57:44.617Z,13.28
2024-01-24T11:00:14.704Z,13.38
2024-01-24T11:02:43.011Z,13.45
2024-01-24T11:05:34.900Z,13.46
2024-01-24T11:08:10.750Z,13.60
2024-01-24T11:10:44.015Z,13.49
2024-01-24T11:13:13.017Z,13.24
2024-01-24T11:15:41.770Z,13.22
2024-01-24T11:18:22.565Z,13.23
2024-01-24T11:20:56.640Z,13.17
2024-01-24T11:23:46.240Z,12.84
2024-01-24T11:26:33.989Z,12.99
2024-01-24T11:29:14.209Z,13.20
2024-01-24T11:31:43.598Z,13.30
2024-01-24T11:34:13.168Z,13.27
2024-01-24T11:36:53.516Z,13.28
2024-01-24T11:39:31.794Z,13.11
2024-01-24T11:42:34.858Z,13.20
2024-01-24T11:45:24.936Z,13.28
2024-01-24T11:47:56.016Z,13.29
2024-01-24T11:50:23.309Z,13.19
2024-01-24T11:52:50.595Z,13.06
2024-01-24T11:55:17.711Z,12.87
2024-01-24T11:57:44.716Z,13.00
2024-01-24T12:00:15.866Z,13.26
2024-01-24T12:02:43.113Z,13.20
2024-01-24T12:05:11.037Z,13.11
2024-01-24T12:07:39.154Z,13.10
2024-01-24T12:10:09.305Z,13.27
2024-01-24T12:12:37.407Z,13.33
2024-01-24T12:15:05.422Z,13.09
2024-01-24T12:17:38.669Z,13.24
2024-01-24T12:20:09.871Z,13.10
2024-01-24T12:22:38.225Z,13.28
2024-01-24T12:25:08.447Z,13.33
2024-01-24T12:27:35.935Z,13.33
2024-01-24T12:30:04.107Z,13.21
2024-01-24T12:32:31.137Z,13.32
2024-01-24T12:35:00.699Z,13.26
2024-01-24T12:37:28.825Z,13.05
2024-01-24T12:39:56.373Z,13.19
2024-01-24T12:42:24.420Z,13.29
2024-01-24T12:44:55.053Z,13.21
2024-01-24T12:47:23.307Z,13.38
2024-01-24T12:49:50.554Z,13.32
2024-01-24T12:52:18.388Z,13.44
2024-01-24T12:54:45.682Z,13.34
2024-01-24T12:57:12.829Z,13.26
2024-01-24T12:59:39.877Z,13.22
2024-01-24T13:02:07.139Z,13.26
2024-01-24T13:04:34.602Z,13.44
2024-01-24T13:07:01.961Z,13.49
2024-01-24T13:09:31.429Z,13.49
2024-01-24T13:12:02.112Z,13.48
2024-01-24T13:14:29.965Z,13.47
2024-01-24T13:16:57.107Z,13.37
2024-01-24T13:19:25.482Z,13.53
2024-01-24T13:21:52.592Z,13.51
2024-01-24T13:24:19.697Z,13.39
2024-01-24T13:26:47.111Z,13.46
2024-01-24T13:29:14.215Z,13.63
2024-01-24T13:31:41.193Z,13.61
2024-01-24T13:34:08.471Z,13.73
2024-01-24T13:36:35.947Z,13.58
2024-01-24T13:39:03.024Z,13.55
2024-01-24T13:41:30.092Z,13.47
2024-01-24T13:43:57.038Z,13.19
2024-01-24T13:46:25.824Z,13.28
2024-01-24T13:48:53.606Z,13.43
2024-01-24T13:51:26.996Z,13.50
2024-01-24T13:53:58.580Z,13.28
2024-01-24T13:56:25.821Z,13.33
2024-01-24T13:58:53.393Z,13.39
2024-01-24T14:01:20.587Z,13.38
2024-01-24T14:03:49.103Z,13.49
2024-01-24T14:06:18.828Z,13.65
2024-01-24T14:08:47.192Z,13.59
2024-01-24T14:11:15.185Z,13.65
2024-01-24T14:13:42.482Z,13.65
2024-01-24T14:16:09.665Z,13.64
2024-01-24T14:18:36.801Z,13.54
2024-01-24T14:21:04.293Z,13.61
2024-01-24T14:23:31.253Z,13.68
2024-01-24T14:25:58.298Z,13.38
2024-01-24T14:28:26.385Z,13.53
2024-01-24T14:30:53.585Z,13.58
2024-01-24T14:33:27.336Z,13.53
2024-01-24T14:36:00.891Z,13.64
2024-01-24T14:38:27.883Z,13.75
2024-01-24T14:40:54.839Z,13.78
2024-01-24T14:43:21.835Z,13.58
2024-01-24T14:45:48.928Z,13.76
2024-01-24T14:48:16.137Z,13.73
2024-01-24T14:50:44.201Z,13.66
2024-01-24T14:53:11.226Z,13.60
2024-01-24T14:55:38.364Z,13.68
2024-01-24T14:58:06.188Z,13.44
2024-01-24T15:00:33.356Z,13.70
2024-01-24T15:03:00.853Z,13.77
2024-01-24T15:05:27.848Z,13.88
2024-01-24T15:07:55.501Z,13.83
2024-01-24T15:10:23.528Z,13.78
2024-01-24T15:12:50.729Z,13.84
2024-01-24T15:15:18.042Z,13.82
2024-01-24T15:17:45.178Z,13.87
2024-01-24T15:20:12.619Z,13.93
2024-01-24T15:22:41.831Z,13.97
2024-01-24T15:25:10.139Z,14.01
2024-01-24T15:27:37.358Z,14.04
2024-01-24T15:30:06.108Z,14.01
2024-01-24T15:32:34.468Z,14.08
2024-01-24T15:35:01.808Z,14.02
2024-01-24T15:37:28.874Z,14.00
2024-01-24T15:39:57.065Z,14.09
2024-01-24T15:42:27.486Z,14.07
2024-01-24T15:44:54.765Z,14.08
2024-01-24T15:47:21.792Z,13.98
2024-01-24T15:49:49.309Z,14.04
2024-01-24T15:52:18.759Z,13.97
2024-01-24T15:54:47.233Z,13.92
2024-01-24T15:57:14.287Z,13.92
2024-01-24T15:59:41.329Z,13.98
2024-01-24T16:02:08.838Z,11.51
2024-01-24T16:04:38.211Z,11.29
2024-01-24T16:07:05.587Z,11.20
2024-01-24T16:09:32.837Z,11.22
2024-01-24T16:12:00.235Z,11.14
2024-01-24T16:14:28.869Z,11.10
2024-01-24T16:16:58.148Z,11.04
2024-01-24T16:19:25.728Z,11.04
2024-01-24T16:21:54.513Z,11.06
2024-01-24T16:24:22.131Z,11.04
2024-01-24T16:26:49.297Z,11.01
2024-01-24T16:29:16.476Z,10.98
2024-01-24T16:31:43.574Z,10.93
2024-01-24T16:34:11.230Z,10.94
2024-01-24T16:36:38.681Z,10.86
2024-01-24T16:39:05.782Z,10.82
2024-01-24T16:41:33.094Z,10.78
2024-01-24T16:44:00.061Z,10.78
2024-01-24T16:46:27.609Z,10.76
2024-01-24T16:48:56.616Z,10.68
2024-01-24T16:51:23.982Z,10.74
2024-01-24T16:53:51.176Z,10.73
2024-01-24T16:56:18.116Z,10.80
2024-01-24T16:58:45.062Z,10.80
2024-01-24T17:01:12.425Z,10.79
2024-01-24T17:03:39.579Z,10.75
2024-01-24T17:06:08.847Z,10.73
2024-01-24T17:08:36.363Z,10.72
2024-01-24T17:11:03.610Z,10.70
2024-01-24T17:13:30.648Z,10.72
2024-01-24T17:16:00.296Z,10.71
2024-01-24T17:18:27.747Z,10.71
2024-01-24T17:20:57.198Z,10.70
2024-01-24T17:23:26.356Z,10.74
2024-01-24T17:25:53.353Z,10.71
2024-01-24T17:28:20.361Z,10.71
2024-01-24T17:30:48.745Z,10.70
2024-01-24T17:33:16.185Z,10.67
2024-01-24T17:35:44.153Z,10.64
2024-01-24T17:38:11.475Z,10.57
2024-01-24T17:40:38.517Z,10.55
2024-01-24T17:43:05.855Z,10.57
2024-01-24T17:45:33.089Z,10.51
2024-01-24T17:48:00.316Z,10.60
2024-01-24T17:50:27.320Z,10.59
2024-01-24T17:52:54.594Z,10.62
2024-01-24T17:55:22.071Z,10.62
2024-01-24T17:57:49.199Z,10.59
2024-01-24T18:00:16.910Z,10.58
2024-01-24T18:02:44.127Z,10.57
2024-01-24T18:05:11.386Z,10.51
2024-01-24T18:07:39.240Z,10.50
2024-01-24T18:10:07.191Z,10.53
2024-01-24T18:12:34.208Z,10.51
2024-01-24T18:15:01.180Z,10.50
2024-01-24T18:17:28.373Z,10.55
2024-01-24T18:19:56.201Z,10.48
2024-01-24T18:22:23.810Z,10.44
2024-01-24T18:24:50.962Z,10.42
2024-01-24T18:27:18.410Z,10.37
2024-01-24T18:29:45.889Z,10.33
2024-01-24T18:32:14.546Z,10.26
2024-01-24T18:34:42.385Z,10.26
2024-01-24T18:37:09.575Z,10.28
2024-01-24T18:39:36.667Z,10.20
2024-01-24T18:42:03.937Z,10.15
2024-01-24T18:44:31.146Z,10.11
2024-01-24T18:46:58.246Z,10.07
2024-01-24T18:49:25.994Z,10.08
2024-01-24T18:51:53.159Z,10.01
2024-01-24T18:54:20.256Z,9.96
2024-01-24T18:56:47.385Z,9.95
2024-01-24T18:59:14.739Z,9.93
2024-01-24T19:01:42.116Z,9.93
2024-01-24T19:04:09.502Z,9.96
2024-01-24T19:06:37.175Z,10.00
2024-01-24T19:09:04.320Z,9.99
2024-01-24T19:11:31.733Z,10.02
2024-01-24T19:13:59.094Z,10.04
2024-01-24T19:16:26.782Z,10.05
2024-01-24T19:18:54.124Z,10.09
2024-01-24T19:21:21.218Z,10.02
2024-01-24T19:23:48.227Z,10.02
2024-01-24T19:26:15.299Z,10.04
2024-01-24T19:28:42.515Z,10.07
2024-01-24T19:31:09.679Z,10.04
2024-01-24T19:33:36.800Z,10.04
2024-01-24T19:36:04.545Z,10.09
2024-01-24T19:38:31.661Z,10.04
2024-01-24T19:40:59.290Z,10.11
2024-01-24T19:43:26.346Z,10.15
2024-01-24T19:45:53.449Z,10.16
2024-01-24T19:48:20.494Z,10.15
2024-01-24T19:50:47.682Z,10.02
2024-01-24T19:53:17.808Z,9.99
2024-01-24T19:55:51.514Z,9.98
2024-01-24T19:58:20.380Z,9.97
2024-01-24T20:00:47.565Z,9.95
2024-01-24T20:03:17.435Z,9.93
2024-01-24T20:05:44.650Z,10.01
2024-01-24T20:08:11.869Z,10.02
2024-01-24T20:10:38.901Z,9.99
2024-01-24T20:13:05.993Z,10.01
2024-01-24T20:15:33.161Z,10.04
2024-01-24T20:18:00.509Z,10.07
2024-01-24T20:20:27.729Z,10.02
2024-01-24T20:22:54.737Z,10.00
2024-01-24T20:25:21.869Z,9.98
2024-01-24T20:27:49.716Z,9.98
2024-01-24T20:30:17.019Z,10.04
2024-01-24T20:32:52.842Z,9.98
2024-01-24T20:35:24.801Z,9.94
2024-01-24T20:37:51.952Z,9.90
2024-01-24T20:40:19.000Z,9.92
2024-01-24T20:42:46.135Z,9.89
2024-01-24T20:45:13.242Z,9.94
2024-01-24T20:47:40.351Z,9.90
2024-01-24T20:50:08.279Z,9.93
2024-01-24T20:52:35.231Z,9.90
2024-01-24T20:55:02.479Z,9.90
2024-01-24T20:57:30.270Z,9.89
2024-01-24T20:59:57.496Z,9.87
2024-01-24T21:02:24.611Z,9.79
2024-01-24T21:04:52.051Z,9.80
2024-01-24T21:07:19.372Z,9.79
2024-01-24T21:09:46.548Z,9.78
2024-01-24T21:12:13.553Z,9.76
2024-01-24T21:14:40.713Z,9.74
2024-01-24T21:17:07.682Z,9.77
2024-01-24T21:19:34.859Z,9.76
2024-01-24T21:22:02.042Z,9.72
2024-01-24T21:24:29.183Z,9.75
2024-01-24T21:26:56.224Z,9.69
2024-01-24T21:29:23.176Z,9.72
2024-01-24T21:31:50.145Z,9.70
2024-01-24T21:34:18.313Z,9.70
2024-01-24T21:36:48.487Z,9.71
2024-01-24T21:39:17.397Z,9.66
2024-01-24T21:41:44.405Z,9.67
2024-01-24T21:44:11.354Z,9.64
2024-01-24T21:46:38.383Z,9.60
2024-01-24T21:49:05.684Z,9.59
2024-01-24T21:51:32.719Z,9.64
2024-01-24T21:53:59.673Z,9.62
2024-01-24T21:56:26.608Z,9.63
2024-01-24T21:58:56.316Z,9.63
2024-01-24T22:01:24.339Z,9.66
2024-01-24T22:03:52.095Z,9.60
2024-01-24T22:06:19.344Z,9.58
2024-01-24T22:08:46.411Z,9.60
2024-01-24T22:11:15.408Z,9.65
2024-01-24T22:13:42.611Z,9.63
2024-01-24T22:16:09.774Z,9.59
2024-01-24T22:18:41.227Z,9.56
2024-01-24T22:21:14.728Z,9.50
2024-01-24T22:23:41.718Z,9.54
2024-01-24T22:26:08.702Z,9.55
2024-01-24T22:28:35.764Z,9.53
2024-01-24T22:31:02.853Z,9.50
2024-01-24T22:33:30.092Z,9.52
2024-01-24T22:35:57.297Z,9.52
2024-01-24T22:38:25.020Z,9.52
2024-01-24T22:40:53.732Z,9.56
2024-01-24T22:43:20.817Z,9.55
2024-01-24T22:45:47.977Z,9.54
2024-01-24T22:48:17.668Z,9.49
2024-01-24T22:50:44.781Z,9.54
2024-01-24T22:53:11.797Z,9.49
2024-01-24T22:55:38.781Z,9.48
2024-01-24T22:58:05.884Z,9.50
2024-01-24T23:00:32.986Z,9.50
2024-01-24T23:03:00.145Z,9.49
2024-01-24T23:05:27.170Z,9.46
2024-01-24T23:07:54.386Z,9.44
2024-01-24T23:10:21.704Z,9.43
2024-01-24T23:12:49.073Z,9.46
2024-01-24T23:15:16.056Z,9.42
2024-01-24T23:17:43.205Z,9.40
2024-01-24T23:20:11.054Z,9.41
2024-01-24T23:22:38.092Z,9.40
2024-01-24T23:25:06.459Z,9.38
2024-01-24T23:27:33.525Z,9.38
2024-01-24T23:30:00.491Z,9.38
2024-01-24T23:32:28.191Z,9.36
2024-01-24T23:34:55.545Z,9.37
2024-01-24T23:37:22.761Z,9.36
2024-01-24T23:39:49.807Z,9.32
2024-01-24T23:42:17.334Z,9.28
2024-01-24T23:44:44.352Z,9.28
2024-01-24T23:47:11.342Z,9.30
2024-01-24T23:49:39.233Z,9.27
2024-01-24T23:52:07.051Z,9.26
2024-01-24T23:54:34.241Z,9.21
2024-01-24T23:57:01.273Z,9.17
2024-01-24T23:59:28.285Z,9.16
